Time;durP1;ratioP1;P1;durP2;ratioP2;P2;SDS_P1;SDS_P2;PMS_P1;PMS_P2;Temp;Humidity;BMP_temperature;BMP_pressure;BME280_temperature;BME280_humidity;BME280_pressure;Samples;Min_cycle;Max_cycle;Signal;HPM_P1;HPM_P2
2022/01/25 00:26:37;;;;;;;;;;;;;;;;;;5083095;28;21101;-79
2022/01/25 00:31:33;;;;;;;;;;;;;;;;;;5065320;28;19951;-79
2022/01/25 00:33:59;;;;;;;;;;;;;;;;;;5066350;28;19920;-78
2022/01/25 00:36:25;;;;;;;;;;;;;;;;;;5074972;28;19959;-81
2022/01/25 00:38:51;;;;;;;;;;;;;;;;;;5087591;28;20435;-80
2022/01/25 00:41:18;;;;;;;;;;;;;;;;;;5084204;28;19951;-79
2022/01/25 00:43:44;;;;;;;;;;;;;;;;;;5081377;28;19962;-79
2022/01/25 00:46:11;;;;;;;;;;;;;;;;;;5079833;28;19997;-79
2022/01/25 00:51:19;;;;;;;;;;;;;;;;;;5085960;28;19955;-81
2022/01/25 00:53:55;;;;;;;;;;;;;;;;;;5085089;28;20012;-81
2022/01/25 00:56:21;;;;;;;;;;;;;;;;;;5078769;28;19947;-81
2022/01/25 00:58:47;;;;;;;;;;;;;;;;;;5084988;28;19952;-82
2022/01/25 01:01:14;;;;;;;;;;;;;;;;;;5084237;28;19948;-81
2022/01/25 01:03:40;;;;;;;;;;;;;;;;;;5083718;28;19956;-80
2022/01/25 01:06:06;;;;;;;;;;;;;;;;;;5085373;28;20388;-80
2022/01/25 01:08:33;;;;;;;;;;;;;;;;;;5082127;28;20534;-80
2022/01/25 01:11:02;;;;;;;;;;;;;;;;;;5065794;28;19955;-80
2022/01/25 01:16:37;;;;;;;;;;;;;;;;;;5081661;28;19973;-81
2022/01/25 01:30:09;;;;;;;;;;;;;;;;;;5083354;28;19955;-81
2022/01/25 01:45:32;;;;;;;;;;;;;;;;;;5082919;28;19960;-79
2022/01/25 01:48:08;;;;;;;;;;;;;;;;;;5078691;28;20398;-78
2022/01/25 01:50:36;;;;;;;;;;;;;;;;;;5083944;28;19951;-80
2022/01/25 01:53:02;;;;;;;;;;;;;;;;;;5081711;28;19968;-79
2022/01/25 01:55:28;;;;;;;;;;;;;;;;;;5090120;28;19982;-80
2022/01/25 01:57:55;;;;;;;;;;;;;;;;;;5085100;28;19983;-80
2022/01/25 02:00:21;;;;;;;;;;;;;;;;;;5080482;28;20036;-80
2022/01/25 02:02:47;;;;;;;;;;;;;;;;;;5084969;28;20017;-78
2022/01/25 02:05:13;;;;;;;;;;;;;;;;;;5064250;28;20466;-79
2022/01/25 02:07:40;;;;;;;;;;;;;;;;;;5084520;28;19966;-80
2022/01/25 02:10:06;;;;;;;;;;;;;;;;;;5082119;28;20157;-83
2022/01/25 02:12:33;;;;;;;;;;;;;;;;;;5082753;28;19928;-79
2022/01/25 02:15:01;;;;;;;;;;;;;;;;;;5064975;28;19959;-79
2022/01/25 02:22:41;;;;;;;;;;;;;;;;;;5080164;28;20455;-80
2022/01/25 02:25:07;;;;;;;;;;;;;;;;;;5083218;28;19943;-81
2022/01/25 02:27:33;;;;;;;;;;;;;;;;;;5085898;28;21655;-81
2022/01/25 02:29:59;;;;;;;;;;;;;;;;;;5083809;28;19981;-80
2022/01/25 02:32:26;;;;;;;;;;;;;;;;;;5082827;28;19959;-80
2022/01/25 02:34:52;;;;;;;;;;;;;;;;;;5078798;28;19959;-81
2022/01/25 02:37:19;;;;;;;;;;;;;;;;;;5079715;28;19955;-81
2022/01/25 02:39:45;;;;;;;;;;;;;;;;;;5076447;28;19967;-80
2022/01/25 02:42:12;;;;;;;;;;;;;;;;;;5078989;28;20400;-80
2022/01/25 02:44:38;;;;;;;;;;;;;;;;;;5085439;28;19955;-81
2022/01/25 02:49:30;;;;;;;;;;;;;;;;;;5079309;28;19916;-81
2022/01/25 02:51:56;;;;;;;;;;;;;;;;;;5087039;28;19944;-80
2022/01/25 02:54:23;;;;;;;;;;;;;;;;;;5065222;28;19978;-85
2022/01/25 02:56:49;;;;;;;;;;;;;;;;;;5068675;28;19958;-81
2022/01/25 02:59:15;;;;;;;;;;;;;;;;;;5086311;28;20465;-81
2022/01/25 03:01:41;;;;;;;;;;;;;;;;;;5088461;28;19958;-82
2022/01/25 03:04:07;;;;;;;;;;;;;;;;;;5087711;28;19958;-83
2022/01/25 03:06:34;;;;;;;;;;;;;;;;;;5086918;28;20551;-82
2022/01/25 03:09:00;;;;;;;;;;;;;;;;;;5086405;28;19943;-81
2022/01/25 03:11:26;;;;;;;;;;;;;;;;;;5086599;28;19959;-81
2022/01/25 03:13:54;;;;;;;;;;;;;;;;;;5089339;28;19964;-81
2022/01/25 03:16:28;;;;;;;;;;;;;;;;;;5086047;28;19955;-81
2022/01/25 03:18:56;;;;;;;;;;;;;;;;;;5068440;28;19955;-81
2022/01/25 03:23:52;;;;;;;;;;;;;;;;;;5065984;28;20385;-81
2022/01/25 03:26:18;;;;;;;;;;;;;;;;;;5084291;28;19952;-81
2022/01/25 03:28:44;;;;;;;;;;;;;;;;;;5087276;28;19944;-81
2022/01/25 03:31:11;;;;;;;;;;;;;;;;;;5087876;28;19963;-81
2022/01/25 03:33:37;;;;;;;;;;;;;;;;;;5068671;28;19951;-82
2022/01/25 03:36:03;;;;;;;;;;;;;;;;;;5076319;28;19964;-81
2022/01/25 03:38:29;;;;;;;;;;;;;;;;;;5086986;28;19960;-81
2022/01/25 03:40:55;;;;;;;;;;;;;;;;;;5087781;28;19954;-82
2022/01/25 03:43:22;;;;;;;;;;;;;;;;;;5069702;28;19968;-82
2022/01/25 03:46:06;;;;;;;;;;;;;;;;;;5087499;28;19959;-81
2022/01/25 03:50:58;;;;;;;;;;;;;;;;;;5085019;28;19956;-80
2022/01/25 03:53:25;;;;;;;;;;;;;;;;;;5062709;28;19921;-82
2022/01/25 03:55:51;;;;;;;;;;;;;;;;;;5088056;28;19960;-82
2022/01/25 03:58:19;;;;;;;;;;;;;;;;;;5086629;28;20515;-83
2022/01/25 04:00:45;;;;;;;;;;;;;;;;;;5085166;28;20008;-82
2022/01/25 04:03:26;;;;;;;;;;;;;;;;;;5087843;28;20345;-81
2022/01/25 04:05:55;;;;;;;;;;;;;;;;;;5087212;28;19952;-82
2022/01/25 04:08:21;;;;;;;;;;;;;;;;;;5082566;28;21255;-82
2022/01/25 04:10:48;;;;;;;;;;;;;;;;;;5087447;28;19982;-82
2022/01/25 04:13:14;;;;;;;;;;;;;;;;;;5068777;28;19956;-80
2022/01/25 04:15:44;;;;;;;;;;;;;;;;;;5085731;28;19939;-79
2022/01/25 04:18:36;;;;;;;;;;;;;;;;;;5047411;28;20015;-79
2022/01/25 04:21:22;;;;;;;;;;;;;;;;;;5084076;28;19917;-78
2022/01/25 04:26:40;;;;;;;;;;;;;;;;;;5084837;28;19963;-78
2022/01/25 04:29:06;;;;;;;;;;;;;;;;;;5061594;28;19955;-79
2022/01/25 04:31:34;;;;;;;;;;;;;;;;;;5083251;28;19959;-80
2022/01/25 04:50:56;;;;;;;;;;;;;;;;;;5055938;28;19944;-80
2022/01/25 04:53:19;;;;;;;;;;;;;;;;;;5079955;28;20014;-79
2022/01/25 04:55:58;;;;;;;;;;;;;;;;;;5083104;28;20348;-78
2022/01/25 04:58:33;;;;;;;;;;;;;;;;;;5080392;28;20441;-81
2022/01/25 05:00:59;;;;;;;;;;;;;;;;;;5080228;28;19963;-79
2022/01/25 05:03:34;;;;;;;;;;;;;;;;;;5068757;28;19977;-79
2022/01/25 05:06:14;;;;;;;;;;;;;;;;;;5082508;28;20005;-80
2022/01/25 05:08:48;;;;;;;;;;;;;;;;;;5082302;28;19978;-80
2022/01/25 05:11:25;;;;;;;;;;;;;;;;;;5080645;28;19955;-80
2022/01/25 05:13:59;;;;;;;;;;;;;;;;;;5085144;28;19952;-78
2022/01/25 05:16:31;;;;;;;;;;;;;;;;;;5080565;28;19972;-78
2022/01/25 05:24:23;;;;;;;;;;;;;;;;;;5082074;28;21234;-81
2022/01/25 05:26:50;;;;;;;;;;;;;;;;;;5047802;28;19956;-81
2022/01/25 05:29:16;;;;;;;;;;;;;;;;;;5067120;28;19986;-82
2022/01/25 05:31:42;;;;;;;;;;;;;;;;;;5086918;28;20395;-81
2022/01/25 05:34:08;;;;;;;;;;;;;;;;;;5083404;28;19997;-81
2022/01/25 05:36:34;;;;;;;;;;;;;;;;;;5086067;28;19924;-81
2022/01/25 05:39:06;;;;;;;;;;;;;;;;;;5082770;28;19967;-82
2022/01/25 05:41:33;;;;;;;;;;;;;;;;;;5084716;28;19920;-82
2022/01/25 05:46:48;;;;;;;;;;;;;;;;;;5080941;28;19966;-86
2022/01/25 05:49:14;;;;;;;;;;;;;;;;;;5081984;28;19958;-82
2022/01/25 05:51:41;;;;;;;;;;;;;;;;;;5082498;28;19958;-82
2022/01/25 05:54:07;;;;;;;;;;;;;;;;;;5080541;28;19959;-82
2022/01/25 05:56:34;;;;;;;;;;;;;;;;;;5064537;28;20000;-82
2022/01/25 05:59:00;;;;;;;;;;;;;;;;;;5081923;28;19959;-81
2022/01/25 06:01:26;;;;;;;;;;;;;;;;;;5084124;28;19959;-82
2022/01/25 06:03:54;;;;;;;;;;;;;;;;;;5077546;28;20017;-82
2022/01/25 06:06:20;;;;;;;;;;;;;;;;;;5083647;28;19959;-82
2022/01/25 06:08:46;;;;;;;;;;;;;;;;;;5083585;28;19958;-81
2022/01/25 06:11:12;;;;;;;;;;;;;;;;;;5080177;28;20446;-81
2022/01/25 06:13:39;;;;;;;;;;;;;;;;;;5084251;28;19958;-81
2022/01/25 06:16:05;;;;;;;;;;;;;;;;;;5083351;28;20433;-82
2022/01/25 06:18:31;;;;;;;;;;;;;;;;;;5083024;28;19956;-81
2022/01/25 06:20:57;;;;;;;;;;;;;;;;;;5083074;28;20006;-81
2022/01/25 06:23:23;;;;;;;;;;;;;;;;;;5078868;28;19967;-81
2022/01/25 06:25:49;;;;;;;;;;;;;;;;;;5086895;28;19954;-81
2022/01/25 06:28:17;;;;;;;;;;;;;;;;;;5089297;28;19916;-81
2022/01/25 06:30:44;;;;;;;;;;;;;;;;;;5062922;28;19951;-81
2022/01/25 06:33:10;;;;;;;;;;;;;;;;;;5085846;28;20007;-82
2022/01/25 06:35:37;;;;;;;;;;;;;;;;;;5071244;28;19966;-82
2022/01/25 06:38:03;;;;;;;;;;;;;;;;;;5072253;28;19963;-81
2022/01/25 06:40:29;;;;;;;;;;;;;;;;;;5068035;28;19955;-81
2022/01/25 06:42:55;;;;;;;;;;;;;;;;;;5083577;28;19977;-81
2022/01/25 06:45:23;;;;;;;;;;;;;;;;;;5091392;28;19943;-81
2022/01/25 06:47:49;;;;;;;;;;;;;;;;;;5061409;28;19951;-82
2022/01/25 06:50:16;;;;;;;;;;;;;;;;;;5085759;28;20001;-82
2022/01/25 06:52:42;;;;;;;;;;;;;;;;;;5086816;28;19921;-81
2022/01/25 06:55:08;;;;;;;;;;;;;;;;;;5091435;28;19962;-83
2022/01/25 06:57:35;;;;;;;;;;;;;;;;;;5068030;28;20524;-82
2022/01/25 07:00:01;;;;;;;;;;;;;;;;;;5087458;28;19967;-82
2022/01/25 07:02:27;;;;;;;;;;;;;;;;;;5087979;28;19948;-82
2022/01/25 07:04:53;;;;;;;;;;;;;;;;;;5087375;28;19960;-83
2022/01/25 07:07:20;;;;;;;;;;;;;;;;;;5085021;28;19966;-82
2022/01/25 07:09:46;;;;;;;;;;;;;;;;;;5085616;28;20010;-82
2022/01/25 07:12:12;;;;;;;;;;;;;;;;;;5090843;28;19955;-82
2022/01/25 07:14:38;;;;;;;;;;;;;;;;;;5091725;28;19970;-83
2022/01/25 07:17:04;;;;;;;;;;;;;;;;;;5059519;28;19968;-82
2022/01/25 07:19:30;;;;;;;;;;;;;;;;;;5092575;28;19971;-81
2022/01/25 07:21:57;;;;;;;;;;;;;;;;;;5087153;28;19960;-78
2022/01/25 07:24:23;;;;;;;;;;;;;;;;;;5065888;28;21221;-80
2022/01/25 07:26:50;;;;;;;;;;;;;;;;;;5064936;28;19959;-82
2022/01/25 07:29:16;;;;;;;;;;;;;;;;;;5092584;28;19955;-81
2022/01/25 07:31:44;;;;;;;;;;;;;;;;;;5088835;28;19958;-81
2022/01/25 07:34:10;;;;;;;;;;;;;;;;;;5081261;28;19994;-82
2022/01/25 07:36:38;;;;;;;;;;;;;;;;;;5088239;28;19962;-83
2022/01/25 07:39:05;;;;;;;;;;;;;;;;;;5083080;28;19977;-83
2022/01/25 07:41:31;;;;;;;;;;;;;;;;;;5063217;28;19981;-81
2022/01/25 07:43:59;;;;;;;;;;;;;;;;;;5062965;28;19955;-81
2022/01/25 07:46:25;;;;;;;;;;;;;;;;;;5086578;28;19954;-81
2022/01/25 07:48:51;;;;;;;;;;;;;;;;;;5086240;28;19956;-82
2022/01/25 07:51:17;;;;;;;;;;;;;;;;;;5063317;28;19955;-81
2022/01/25 07:53:44;;;;;;;;;;;;;;;;;;5083495;28;19955;-81
2022/01/25 07:56:10;;;;;;;;;;;;;;;;;;5083459;28;19959;-81
2022/01/25 07:58:36;;;;;;;;;;;;;;;;;;5087487;28;19979;-81
2022/01/25 08:01:02;;;;;;;;;;;;;;;;;;5068161;28;19959;-80
2022/01/25 08:03:28;;;;;;;;;;;;;;;;;;5085775;28;19959;-82
2022/01/25 08:05:55;;;;;;;;;;;;;;;;;;5085038;28;19959;-80
2022/01/25 08:08:21;;;;;;;;;;;;;;;;;;5084480;28;19967;-81
2022/01/25 08:10:47;;;;;;;;;;;;;;;;;;5058931;28;19956;-81
2022/01/25 08:13:13;;;;;;;;;;;;;;;;;;5086543;28;19970;-81
2022/01/25 08:15:40;;;;;;;;;;;;;;;;;;5084952;28;19935;-80
2022/01/25 08:18:06;;;;;;;;;;;;;;;;;;5084299;28;19971;-81
2022/01/25 08:20:32;;;;;;;;;;;;;;;;;;5083513;28;19950;-81
2022/01/25 08:22:58;;;;;;;;;;;;;;;;;;5083139;28;19967;-80
2022/01/25 08:25:25;;;;;;;;;;;;;;;;;;5076571;28;19975;-81
2022/01/25 08:27:51;;;;;;;;;;;;;;;;;;5086010;28;19912;-81
2022/01/25 08:30:17;;;;;;;;;;;;;;;;;;5090322;28;22326;-83
2022/01/25 08:32:43;;;;;;;;;;;;;;;;;;5086067;28;19962;-84
2022/01/25 08:35:09;;;;;;;;;;;;;;;;;;5082553;28;19950;-77
2022/01/25 08:37:36;;;;;;;;;;;;;;;;;;5083217;28;19951;-78
2022/01/25 08:40:03;;;;;;;;;;;;;;;;;;5084812;28;19968;-79
2022/01/25 08:42:29;;;;;;;;;;;;;;;;;;5085413;28;20403;-78
2022/01/25 08:44:55;;;;;;;;;;;;;;;;;;5085792;28;19956;-78
2022/01/25 08:47:21;;;;;;;;;;;;;;;;;;5062472;28;19958;-78
2022/01/25 08:49:47;;;;;;;;;;;;;;;;;;5068512;28;19986;-79
2022/01/25 08:52:13;;;;;;;;;;;;;;;;;;5064957;28;19967;-79
2022/01/25 08:54:40;;;;;;;;;;;;;;;;;;5084824;28;20016;-78
2022/01/25 08:57:06;;;;;;;;;;;;;;;;;;5081230;28;19994;-78
2022/01/25 08:59:32;;;;;;;;;;;;;;;;;;5084461;28;19928;-77
2022/01/25 09:01:58;;;;;;;;;;;;;;;;;;5082311;28;19960;-77
2022/01/25 09:04:25;;;;;;;;;;;;;;;;;;5083164;28;19959;-76
2022/01/25 09:06:51;;;;;;;;;;;;;;;;;;5086278;28;19943;-75
2022/01/25 09:09:17;;;;;;;;;;;;;;;;;;5083969;28;21301;-76
2022/01/25 09:11:43;;;;;;;;;;;;;;;;;;5085240;28;19962;-77
2022/01/25 09:14:09;;;;;;;;;;;;;;;;;;5082362;28;19950;-76
2022/01/25 09:16:36;;;;;;;;;;;;;;;;;;5057739;28;19967;-77
2022/01/25 09:19:02;;;;;;;;;;;;;;;;;;5062455;28;19978;-76
2022/01/25 09:21:28;;;;;;;;;;;;;;;;;;5080394;28;20555;-77
2022/01/25 09:23:54;;;;;;;;;;;;;;;;;;5078950;28;20410;-77
2022/01/25 09:26:21;;;;;;;;;;;;;;;;;;5087948;28;19956;-77
2022/01/25 09:28:47;;;;;;;;;;;;;;;;;;5083487;28;19958;-77
2022/01/25 09:31:13;;;;;;;;;;;;;;;;;;5078937;28;19970;-76
2022/01/25 09:33:39;;;;;;;;;;;;;;;;;;5060342;28;19939;-77
2022/01/25 09:36:06;;;;;;;;;;;;;;;;;;5083764;28;19946;-77
2022/01/25 09:38:32;;;;;;;;;;;;;;;;;;5081061;28;19971;-78
2022/01/25 09:40:58;;;;;;;;;;;;;;;;;;5065196;28;19956;-78
2022/01/25 09:43:24;;;;;;;;;;;;;;;;;;5083479;28;20621;-78
2022/01/25 09:45:51;;;;;;;;;;;;;;;;;;5084651;28;19943;-78
2022/01/25 09:48:17;;;;;;;;;;;;;;;;;;5080892;28;19955;-78
2022/01/25 09:50:43;;;;;;;;;;;;;;;;;;5083050;28;19924;-78
2022/01/25 09:53:09;;;;;;;;;;;;;;;;;;5083416;28;19952;-78
2022/01/25 09:55:35;;;;;;;;;;;;;;;;;;5080612;28;19916;-78
2022/01/25 09:58:02;;;;;;;;;;;;;;;;;;5082415;28;20029;-79
2022/01/25 10:00:29;;;;;;;;;;;;;;;;;;5085324;28;19998;-79
2022/01/25 10:03:09;;;;;;;;;;;;;;;;;;5091696;28;19947;-79
2022/01/25 10:05:36;;;;;;;;;;;;;;;;;;5089515;28;21809;-79
2022/01/25 10:08:02;;;;;;;;;;;;;;;;;;5085296;28;20451;-79
2022/01/25 10:10:29;;;;;;;;;;;;;;;;;;5089622;28;19947;-79
2022/01/25 10:12:55;;;;;;;;;;;;;;;;;;5086706;28;19960;-78
2022/01/25 10:15:21;;;;;;;;;;;;;;;;;;5089362;28;20419;-78
2022/01/25 10:17:47;;;;;;;;;;;;;;;;;;5063476;28;19967;-78
2022/01/25 10:20:14;;;;;;;;;;;;;;;;;;5074004;28;20892;-78
2022/01/25 10:22:40;;;;;;;;;;;;;;;;;;5087876;28;19992;-78
2022/01/25 10:25:06;;;;;;;;;;;;;;;;;;5088321;28;20013;-79
2022/01/25 10:30:28;;;;;;;;;;;;;;;;;;5067163;28;20358;-80
2022/01/25 10:32:54;;;;;;;;;;;;;;;;;;5086062;28;19959;-80
2022/01/25 10:35:23;;;;;;;;;;;;;;;;;;5084085;28;19959;-80
2022/01/25 10:37:50;;;;;;;;;;;;;;;;;;5084541;28;19959;-80
2022/01/25 10:40:16;;;;;;;;;;;;;;;;;;5087755;28;19963;-84
2022/01/25 10:42:42;;;;;;;;;;;;;;;;;;5088058;28;19924;-86
2022/01/25 10:45:09;;;;;;;;;;;;;;;;;;5087114;28;19977;-85
2022/01/25 10:47:35;;;;;;;;;;;;;;;;;;5088460;28;21324;-86
2022/01/25 10:50:02;;;;;;;;;;;;;;;;;;5089140;28;19955;-84
2022/01/25 10:52:29;;;;;;;;;;;;;;;;;;5070810;28;19956;-84
2022/01/25 10:54:55;;;;;;;;;;;;;;;;;;5087895;28;19958;-83
2022/01/25 10:57:23;;;;;;;;;;;;;;;;;;5087639;28;19959;-84
2022/01/25 10:59:49;;;;;;;;;;;;;;;;;;5090028;28;19963;-84
2022/01/25 11:02:15;;;;;;;;;;;;;;;;;;5083819;28;19947;-84
2022/01/25 11:04:42;;;;;;;;;;;;;;;;;;5065289;28;19920;-84
2022/01/25 11:07:08;;;;;;;;;;;;;;;;;;5085460;28;19951;-83
2022/01/25 11:09:37;;;;;;;;;;;;;;;;;;5086163;28;19951;-84
2022/01/25 11:12:04;;;;;;;;;;;;;;;;;;5086817;28;20111;-83
2022/01/25 11:17:15;;;;;;;;;;;;;;;;;;5084305;28;19955;-84
2022/01/25 11:19:41;;;;;;;;;;;;;;;;;;5087789;28;19972;-84
2022/01/25 11:22:07;;;;;;;;;;;;;;;;;;5087419;28;19992;-84
2022/01/25 11:24:34;;;;;;;;;;;;;;;;;;5086641;28;19958;-84
2022/01/25 11:27:00;;;;;;;;;;;;;;;;;;5089911;28;19943;-83
2022/01/25 11:29:26;;;;;;;;;;;;;;;;;;5084678;28;19955;-84
2022/01/25 11:31:53;;;;;;;;;;;;;;;;;;5090047;28;19955;-85
2022/01/25 11:34:19;;;;;;;;;;;;;;;;;;5084966;28;20375;-83
2022/01/25 11:36:45;;;;;;;;;;;;;;;;;;5087126;28;19947;-83
2022/01/25 11:39:12;;;;;;;;;;;;;;;;;;5085326;28;19959;-83
2022/01/25 11:41:38;;;;;;;;;;;;;;;;;;5068734;28;20372;-83
2022/01/25 11:44:04;;;;;;;;;;;;;;;;;;5085786;28;19940;-83
2022/01/25 11:46:30;;;;;;;;;;;;;;;;;;5089342;28;20360;-84
2022/01/25 11:48:56;;;;;;;;;;;;;;;;;;5087609;28;19920;-83
2022/01/25 11:51:22;;;;;;;;;;;;;;;;;;5084693;28;19962;-84
2022/01/25 11:53:49;;;;;;;;;;;;;;;;;;5087238;28;19963;-83
2022/01/25 11:56:15;;;;;;;;;;;;;;;;;;5086042;28;19940;-83
2022/01/25 11:58:41;;;;;;;;;;;;;;;;;;5086274;28;22417;-83
2022/01/25 12:01:09;;;;;;;;;;;;;;;;;;5086151;28;19955;-83
2022/01/25 12:03:35;;;;;;;;;;;;;;;;;;5086514;28;19928;-83
2022/01/25 12:06:03;;;;;;;;;;;;;;;;;;5086920;28;20030;-82
2022/01/25 12:08:38;;;;;;;;;;;;;;;;;;5087526;28;19962;-83
2022/01/25 12:11:16;;;;;;;;;;;;;;;;;;5083862;28;19993;-80
2022/01/25 12:13:42;;;;;;;;;;;;;;;;;;5072747;28;20005;-81
2022/01/25 12:16:08;;;;;;;;;;;;;;;;;;5086402;28;19963;-80
2022/01/25 12:18:34;;;;;;;;;;;;;;;;;;5086245;28;19959;-81
2022/01/25 12:21:00;;;;;;;;;;;;;;;;;;5082744;28;19955;-81
2022/01/25 12:23:27;;;;;;;;;;;;;;;;;;5065632;28;19956;-82
2022/01/25 12:25:56;;;;;;;;;;;;;;;;;;5087118;28;19959;-84
2022/01/25 12:28:23;;;;;;;;;;;;;;;;;;5065931;28;20562;-84
2022/01/25 12:30:49;;;;;;;;;;;;;;;;;;5083785;28;19948;-83
2022/01/25 12:33:15;;;;;;;;;;;;;;;;;;5063632;28;20034;-83
2022/01/25 12:35:41;;;;;;;;;;;;;;;;;;5085711;28;19954;-83
2022/01/25 12:38:07;;;;;;;;;;;;;;;;;;5085801;28;19974;-83
2022/01/25 12:40:34;;;;;;;;;;;;;;;;;;5086339;28;19951;-84
2022/01/25 12:43:00;;;;;;;;;;;;;;;;;;5084141;28;19948;-81
2022/01/25 12:45:26;;;;;;;;;;;;;;;;;;5084518;28;19951;-82
2022/01/25 12:47:52;;;;;;;;;;;;;;;;;;5084450;28;19952;-82
2022/01/25 12:50:19;;;;;;;;;;;;;;;;;;5061347;28;20443;-82
2022/01/25 12:52:45;;;;;;;;;;;;;;;;;;5093760;28;19948;-83
2022/01/25 12:55:12;;;;;;;;;;;;;;;;;;5089671;28;19966;-83
2022/01/25 12:57:38;;;;;;;;;;;;;;;;;;5067794;28;20393;-84
2022/01/25 13:00:04;;;;;;;;;;;;;;;;;;5088752;28;19975;-84
2022/01/25 13:02:30;;;;;;;;;;;;;;;;;;5085099;28;19956;-84
2022/01/25 13:04:57;;;;;;;;;;;;;;;;;;5085905;28;19952;-84
2022/01/25 13:07:23;;;;;;;;;;;;;;;;;;5074734;28;19951;-84
2022/01/25 13:09:54;;;;;;;;;;;;;;;;;;5086777;28;20393;-84
2022/01/25 13:12:29;;;;;;;;;;;;;;;;;;5082021;28;19963;-84
2022/01/25 13:15:26;;;;;;;;;;;;;;;;;;5082223;28;20356;-82
2022/01/25 13:17:47;;;;;;;;;;;;;;;;;;5079963;28;22353;-84
2022/01/25 13:20:14;;;;;;;;;;;;;;;;;;5083326;28;19933;-85
2022/01/25 13:22:42;;;;;;;;;;;;;;;;;;5088381;28;20295;-84
2022/01/25 13:25:14;;;;;;;;;;;;;;;;;;5064949;28;20409;-85
2022/01/25 13:27:49;;;;;;;;;;;;;;;;;;5084289;28;20009;-84
2022/01/25 13:33:00;;;;;;;;;;;;;;;;;;5084953;28;19963;-84
2022/01/25 13:35:32;;;;;;;;;;;;;;;;;;5086423;28;19948;-79
2022/01/25 13:37:58;;;;;;;;;;;;;;;;;;5083099;28;19959;-80
2022/01/25 13:40:33;;;;;;;;;;;;;;;;;;5083857;28;20552;-79
2022/01/25 13:43:29;;;;;;;;;;;;;;;;;;5086186;28;19952;-81
2022/01/25 13:45:51;;;;;;;;;;;;;;;;;;5068810;28;19917;-81
2022/01/25 13:48:19;;;;;;;;;;;;;;;;;;5082428;28;19962;-83
2022/01/25 13:50:46;;;;;;;;;;;;;;;;;;5083480;28;19962;-81
2022/01/25 13:53:12;;;;;;;;;;;;;;;;;;5083552;28;19963;-81
2022/01/25 13:55:38;;;;;;;;;;;;;;;;;;5084913;28;19947;-81
2022/01/25 13:58:04;;;;;;;;;;;;;;;;;;5083246;28;19951;-81
2022/01/25 14:00:30;;;;;;;;;;;;;;;;;;5084309;28;20475;-82
2022/01/25 14:02:57;;;;;;;;;;;;;;;;;;5088260;28;20001;-82
2022/01/25 14:05:23;;;;;;;;;;;;;;;;;;5066287;28;19959;-83
2022/01/25 14:07:49;;;;;;;;;;;;;;;;;;5085617;28;19993;-83
2022/01/25 14:10:22;;;;;;;;;;;;;;;;;;5084126;28;20325;-84
2022/01/25 14:23:48;;;;;;;;;;;;;;;;;;5080812;28;19955;-82
2022/01/25 14:26:14;;;;;;;;;;;;;;;;;;5083449;28;20141;-81
2022/01/25 14:28:43;;;;;;;;;;;;;;;;;;5080611;28;19952;-81
2022/01/25 14:31:09;;;;;;;;;;;;;;;;;;5080662;28;19947;-81
2022/01/25 14:33:35;;;;;;;;;;;;;;;;;;5083741;28;19947;-81
2022/01/25 14:36:03;;;;;;;;;;;;;;;;;;5085493;28;19952;-81
2022/01/25 14:38:30;;;;;;;;;;;;;;;;;;5084337;28;20383;-82
2022/01/25 14:40:56;;;;;;;;;;;;;;;;;;5076381;28;19963;-82
2022/01/25 14:43:22;;;;;;;;;;;;;;;;;;5081589;28;20020;-82
2022/01/25 14:45:54;;;;;;;;;;;;;;;;;;5083580;28;19916;-82
2022/01/25 14:48:20;;;;;;;;;;;;;;;;;;5080766;28;20381;-83
2022/01/25 14:50:46;;;;;;;;;;;;;;;;;;5063300;28;19952;-82
2022/01/25 14:53:12;;;;;;;;;;;;;;;;;;5087341;28;19963;-82
2022/01/25 14:55:39;;;;;;;;;;;;;;;;;;5063693;28;19915;-82
2022/01/25 15:00:37;;;;;;;;;;;;;;;;;;5082511;28;20364;-82
2022/01/25 15:03:03;;;;;;;;;;;;;;;;;;5085504;28;19962;-82
2022/01/25 15:05:29;;;;;;;;;;;;;;;;;;5087369;28;20368;-82
2022/01/25 15:07:55;;;;;;;;;;;;;;;;;;5066746;28;19955;-82
2022/01/25 15:10:22;;;;;;;;;;;;;;;;;;5083880;28;19967;-82
2022/01/25 15:12:49;;;;;;;;;;;;;;;;;;5088247;28;19951;-81
2022/01/25 15:15:23;;;;;;;;;;;;;;;;;;5085482;28;19954;-83
2022/01/25 15:17:49;;;;;;;;;;;;;;;;;;5086002;28;20079;-81
2022/01/25 15:20:16;;;;;;;;;;;;;;;;;;5084529;28;20624;-82
2022/01/25 15:22:43;;;;;;;;;;;;;;;;;;5065324;28;19959;-81
2022/01/25 15:25:11;;;;;;;;;;;;;;;;;;5066821;28;19951;-80
2022/01/25 15:27:37;;;;;;;;;;;;;;;;;;5085909;28;19963;-81
2022/01/25 15:30:04;;;;;;;;;;;;;;;;;;5084834;28;20563;-81
2022/01/25 15:32:30;;;;;;;;;;;;;;;;;;5086345;28;19948;-83
2022/01/25 15:34:56;;;;;;;;;;;;;;;;;;5083376;28;20299;-82
2022/01/25 15:37:22;;;;;;;;;;;;;;;;;;5080359;28;19967;-81
2022/01/25 15:39:48;;;;;;;;;;;;;;;;;;5084159;28;20356;-86
2022/01/25 15:42:16;;;;;;;;;;;;;;;;;;5087592;28;19959;-86
2022/01/25 15:44:45;;;;;;;;;;;;;;;;;;5070430;28;19955;-86
2022/01/25 15:47:11;;;;;;;;;;;;;;;;;;5087616;28;19956;-85
2022/01/25 15:49:37;;;;;;;;;;;;;;;;;;5089414;28;19944;-85
2022/01/25 15:52:10;;;;;;;;;;;;;;;;;;5086854;28;19952;-85
2022/01/25 15:54:36;;;;;;;;;;;;;;;;;;5088221;28;19916;-86
2022/01/25 15:57:02;;;;;;;;;;;;;;;;;;5087470;28;20008;-87
2022/01/25 15:59:28;;;;;;;;;;;;;;;;;;5068078;28;19981;-88
2022/01/25 16:01:55;;;;;;;;;;;;;;;;;;5087952;28;19970;-88
2022/01/25 16:04:21;;;;;;;;;;;;;;;;;;5086137;28;19963;-88
2022/01/25 16:06:47;;;;;;;;;;;;;;;;;;5089815;28;19947;-89
2022/01/25 16:09:13;;;;;;;;;;;;;;;;;;5087868;28;19955;-88
2022/01/25 16:11:39;;;;;;;;;;;;;;;;;;5089302;28;19955;-89
2022/01/25 16:14:06;;;;;;;;;;;;;;;;;;5094205;28;19955;-87
2022/01/25 16:16:32;;;;;;;;;;;;;;;;;;5083342;28;20412;-91
2022/01/25 16:18:58;;;;;;;;;;;;;;;;;;5090634;28;19955;-88
2022/01/25 16:21:24;;;;;;;;;;;;;;;;;;5087813;28;19924;-90
2022/01/25 16:23:50;;;;;;;;;;;;;;;;;;5083852;28;19956;-91
2022/01/25 16:26:18;;;;;;;;;;;;;;;;;;5089951;28;19916;-91
2022/01/25 16:28:44;;;;;;;;;;;;;;;;;;5089364;28;19943;-90
2022/01/25 16:31:18;;;;;;;;;;;;;;;;;;5084551;28;19951;-91
2022/01/25 16:33:44;;;;;;;;;;;;;;;;;;5088539;28;20000;-91
2022/01/25 16:36:11;;;;;;;;;;;;;;;;;;5085828;28;19923;-90
2022/01/25 16:38:37;;;;;;;;;;;;;;;;;;5065792;28;20012;-90
2022/01/25 16:41:03;;;;;;;;;;;;;;;;;;5085690;28;20859;-88
2022/01/25 16:43:29;;;;;;;;;;;;;;;;;;5089814;28;19951;-90
2022/01/25 16:45:57;;;;;;;;;;;;;;;;;;5088254;28;20006;-91
2022/01/25 16:48:24;;;;;;;;;;;;;;;;;;5086868;28;19951;-90
2022/01/25 16:50:50;;;;;;;;;;;;;;;;;;5087700;28;20375;-90
2022/01/25 16:53:16;;;;;;;;;;;;;;;;;;5088015;28;19951;-91
2022/01/25 16:55:42;;;;;;;;;;;;;;;;;;5080214;28;20547;-91
2022/01/25 16:58:08;;;;;;;;;;;;;;;;;;5087512;28;19955;-90
2022/01/25 17:00:39;;;;;;;;;;;;;;;;;;5088786;28;20332;-91
2022/01/25 17:03:05;;;;;;;;;;;;;;;;;;5086980;28;19948;-91
2022/01/25 17:05:31;;;;;;;;;;;;;;;;;;5089171;28;19950;-85
2022/01/25 17:07:57;;;;;;;;;;;;;;;;;;5087366;28;19920;-89
2022/01/25 17:10:23;;;;;;;;;;;;;;;;;;5088841;28;19952;-91
2022/01/25 17:12:51;;;;;;;;;;;;;;;;;;5090966;28;19920;-89
2022/01/25 17:15:17;;;;;;;;;;;;;;;;;;5089198;28;19920;-89
2022/01/25 17:17:43;;;;;;;;;;;;;;;;;;5070644;28;19951;-88
2022/01/25 17:20:10;;;;;;;;;;;;;;;;;;5086104;28;19959;-82
2022/01/25 17:22:36;;;;;;;;;;;;;;;;;;5088560;28;20025;-91
2022/01/25 17:25:02;;;;;;;;;;;;;;;;;;5086103;28;19956;-89
2022/01/25 17:27:28;;;;;;;;;;;;;;;;;;5089438;28;19962;-88
2022/01/25 17:29:54;;;;;;;;;;;;;;;;;;5089575;28;19943;-88
2022/01/25 17:32:21;;;;;;;;;;;;;;;;;;5087598;28;19963;-89
2022/01/25 17:34:47;;;;;;;;;;;;;;;;;;5086848;28;19919;-86
2022/01/25 17:37:15;;;;;;;;;;;;;;;;;;5084486;28;19940;-88
2022/01/25 17:39:41;;;;;;;;;;;;;;;;;;5083940;28;20406;-88
2022/01/25 17:42:07;;;;;;;;;;;;;;;;;;5083520;28;19966;-84
2022/01/25 17:44:34;;;;;;;;;;;;;;;;;;5084368;28;20333;-84
2022/01/25 17:47:00;;;;;;;;;;;;;;;;;;5080168;28;19971;-84
2022/01/25 17:49:26;;;;;;;;;;;;;;;;;;5062989;28;20402;-84
2022/01/25 17:51:53;;;;;;;;;;;;;;;;;;5061658;28;20329;-78
2022/01/25 17:54:19;;;;;;;;;;;;;;;;;;5080737;28;20354;-82
2022/01/25 17:56:45;;;;;;;;;;;;;;;;;;5079573;28;19952;-82
2022/01/25 17:59:12;;;;;;;;;;;;;;;;;;5078809;28;19993;-80
2022/01/25 18:01:38;;;;;;;;;;;;;;;;;;5080820;28;19927;-83
2022/01/25 18:04:05;;;;;;;;;;;;;;;;;;5081489;28;19962;-81
2022/01/25 18:06:31;;;;;;;;;;;;;;;;;;5084547;28;19975;-81
2022/01/25 18:08:57;;;;;;;;;;;;;;;;;;5067196;28;20439;-81
2022/01/25 18:11:23;;;;;;;;;;;;;;;;;;5081293;28;19960;-78
2022/01/25 18:13:49;;;;;;;;;;;;;;;;;;5085331;28;19916;-81
2022/01/25 18:16:17;;;;;;;;;;;;;;;;;;5061985;28;20431;-77
2022/01/25 18:18:45;;;;;;;;;;;;;;;;;;5082856;28;20022;-78
2022/01/25 18:21:14;;;;;;;;;;;;;;;;;;5082858;28;20284;-77
2022/01/25 18:23:47;;;;;;;;;;;;;;;;;;5063205;28;20317;-77
2022/01/25 18:28:59;;;;;;;;;;;;;;;;;;5080316;28;19947;-79
2022/01/25 18:31:25;;;;;;;;;;;;;;;;;;5087363;28;20040;-78
2022/01/25 18:33:51;;;;;;;;;;;;;;;;;;5083786;28;19967;-80
2022/01/25 18:36:17;;;;;;;;;;;;;;;;;;5069396;28;19959;-78
2022/01/25 18:38:44;;;;;;;;;;;;;;;;;;5087558;28;19959;-79
2022/01/25 18:41:10;;;;;;;;;;;;;;;;;;5085893;28;20013;-78
2022/01/25 18:43:36;;;;;;;;;;;;;;;;;;5066492;28;19963;-79
2022/01/25 18:46:05;;;;;;;;;;;;;;;;;;5087959;28;19947;-85
2022/01/25 18:48:32;;;;;;;;;;;;;;;;;;5088547;28;20375;-85